createdAt,value
2023-04-11T17:54:29.543Z,12.90
2023-04-11T17:56:56.371Z,12.80
2023-04-11T17:59:25.305Z,12.80
2023-04-11T18:01:53.515Z,12.70
2023-04-11T18:04:21.755Z,12.70
2023-04-11T18:06:48.481Z,12.60
2023-04-11T18:09:17.896Z,12.50
2023-04-11T18:11:47.253Z,12.40
2023-04-11T18:14:13.982Z,12.40
2023-04-11T18:16:40.845Z,12.40
2023-04-11T18:19:07.627Z,12.30
2023-04-11T18:21:34.297Z,12.20
2023-04-11T18:24:01.017Z,12.20
2023-04-11T18:26:27.724Z,12.10
2023-04-11T18:28:55.893Z,12.10
2023-04-11T18:31:22.707Z,12.10
2023-04-11T18:33:49.543Z,12.10
2023-04-11T18:36:16.521Z,12.10
2023-04-11T18:38:43.998Z,12.00
2023-04-11T18:41:12.344Z,11.90
2023-04-11T18:43:39.528Z,11.90
2023-04-11T18:46:07.803Z,11.90
2023-04-11T18:48:34.664Z,11.80
2023-04-11T18:51:01.643Z,11.80
2023-04-11T18:53:31.190Z,11.80
2023-04-11T18:55:58.066Z,11.70
2023-04-11T18:58:26.359Z,11.70
2023-04-11T19:00:54.230Z,11.70
2023-04-11T19:03:21.153Z,11.70
2023-04-11T19:05:48.306Z,11.60
2023-04-11T19:08:15.420Z,11.60
2023-04-11T19:10:42.174Z,11.60
2023-04-11T19:13:10.284Z,11.60
2023-04-11T19:15:41.039Z,11.60
2023-04-11T19:18:12.183Z,11.50
2023-04-11T19:20:39.493Z,11.50
2023-04-11T19:23:06.406Z,11.40
2023-04-11T19:25:33.205Z,11.40
2023-04-11T19:28:00.523Z,11.40
2023-04-11T19:30:28.473Z,11.40
2023-04-11T19:32:56.235Z,11.30
2023-04-11T19:35:24.342Z,11.30
2023-04-11T19:37:51.729Z,11.30
2023-04-11T19:40:18.935Z,11.30
2023-04-11T19:42:46.007Z,11.30
2023-04-11T19:45:12.870Z,11.30
2023-04-11T19:47:40.610Z,11.30
2023-04-11T19:50:11.821Z,11.30
2023-04-11T19:52:40.816Z,11.20
2023-04-11T19:55:11.207Z,11.20
2023-04-11T19:57:41.081Z,11.10
2023-04-11T20:00:13.506Z,11.10
2023-04-11T20:02:46.109Z,11.10
2023-04-11T20:05:18.761Z,11.10
2023-04-11T20:07:48.835Z,11.10
2023-04-11T20:10:17.252Z,11.10
2023-04-11T20:12:44.173Z,11.10
2023-04-11T20:15:11.342Z,11.10
2023-04-11T20:17:38.124Z,11.00
2023-04-11T20:20:06.404Z,11.00
2023-04-11T20:22:33.244Z,10.90
2023-04-11T20:25:00.974Z,10.90
2023-04-11T20:27:28.121Z,11.00
2023-04-11T20:29:56.817Z,10.90
2023-04-11T20:32:24.827Z,10.90
2023-04-11T20:34:51.634Z,10.90
2023-04-11T20:37:19.339Z,10.90
2023-04-11T20:39:46.111Z,10.80
2023-04-11T20:42:13.004Z,10.80
2023-04-11T20:44:39.765Z,10.80
2023-04-11T20:47:07.454Z,10.80
2023-04-11T20:49:34.109Z,10.80
2023-04-11T20:52:03.252Z,10.80
2023-04-11T20:54:30.267Z,10.80
2023-04-11T20:56:57.080Z,10.80
2023-04-11T20:59:23.787Z,10.80
2023-04-11T21:01:50.667Z,10.80
2023-04-11T21:04:18.718Z,10.80
2023-04-11T21:06:46.458Z,10.80
2023-04-11T21:09:13.241Z,10.80
2023-04-11T21:11:39.912Z,10.80
2023-04-11T21:14:08.975Z,10.80
2023-04-11T21:16:35.762Z,10.80
2023-04-11T21:19:02.578Z,10.80
2023-04-11T21:21:31.303Z,10.80
2023-04-11T21:23:58.190Z,10.80
2023-04-11T21:26:25.814Z,10.90
2023-04-11T21:28:52.535Z,10.90
2023-04-11T21:31:19.187Z,10.90
2023-04-11T21:33:46.584Z,10.90
2023-04-11T21:36:13.383Z,10.90
2023-04-11T21:38:43.410Z,10.90
2023-04-11T21:41:10.053Z,10.80
2023-04-11T21:43:39.130Z,10.80
2023-04-11T21:46:06.047Z,10.80
2023-04-11T21:48:35.253Z,10.80
2023-04-11T21:51:05.273Z,10.80
